Time;durP1;ratioP1;P1;durP2;ratioP2;P2;SDS_P1;SDS_P2;PMS_P1;PMS_P2;Temp;Humidity;BMP_temperature;BMP_pressure;BME280_temperature;BME280_humidity;BME280_pressure;Samples;Min_cycle;Max_cycle;Signal;HPM_P1;HPM_P2
2024/03/11 00:01:51;;;;;;;0.00;0.00;;;;;;;7.24;100.00;98757.75;6187262;23;20504;-72
2024/03/11 00:04:17;;;;;;;0.00;0.00;;;;;;;7.39;100.00;98770.41;6164751;23;20240;-73
2024/03/11 00:06:44;;;;;;;0.00;0.00;;;;;;;7.44;100.00;98766.84;6139267;23;20009;-74
2024/03/11 00:09:20;;;;;;;0.00;0.00;;;;;;;7.55;100.00;98771.09;6165666;23;20028;-73
2024/03/11 00:11:55;;;;;;;0.00;0.00;;;;;;;7.43;100.00;98766.03;6216505;23;19989;-72
2024/03/11 00:14:33;;;;;;;0.00;0.00;;;;;;;7.35;100.00;98769.34;6215028;23;20008;-72
2024/03/11 00:17:07;;;;;;;0.00;0.00;;;;;;;7.23;100.00;98760.75;6191738;23;20019;-73
2024/03/11 00:19:34;;;;;;;0.00;0.00;;;;;;;7.17;100.00;98762.72;6188457;23;20021;-73
2024/03/11 00:22:00;;;;;;;0.00;0.00;;;;;;;7.12;100.00;98779.84;6216653;23;19991;-74
2024/03/11 00:24:25;;;;;;;0.00;0.00;;;;;;;7.08;100.00;98780.72;6162243;23;20028;-74
2024/03/11 00:26:57;;;;;;;0.00;0.00;;;;;;;6.95;100.00;98757.69;6188908;23;20390;-74
2024/03/11 00:29:29;;;;;;;0.00;0.00;;;;;;;7.11;100.00;98775.53;6187849;23;20023;-74
2024/03/11 00:31:55;;;;;;;0.00;0.00;;;;;;;7.12;100.00;98784.47;6166616;23;20008;-73
2024/03/11 00:34:21;;;;;;;0.00;0.00;;;;;;;7.06;100.00;98772.03;6212441;23;20001;-73
2024/03/11 00:36:49;;;;;;;0.00;0.00;;;;;;;7.05;100.00;98782.06;6165076;23;20009;-73
2024/03/11 00:39:17;;;;;;;0.05;0.05;;;;;;;7.04;100.00;98788.63;6215407;23;20051;-72
2024/03/11 00:41:43;;;;;;;0.00;0.00;;;;;;;6.98;100.00;98792.47;6162901;23;20059;-74
2024/03/11 00:44:10;;;;;;;0.00;0.00;;;;;;;6.89;100.00;98777.84;6217114;23;20687;-73
2024/03/11 00:46:35;;;;;;;0.00;0.00;;;;;;;6.98;100.00;98790.56;6160904;23;20013;-73
2024/03/11 00:49:02;;;;;;;0.00;0.00;;;;;;;7.02;100.00;98792.72;6190901;23;20437;-74
2024/03/11 00:51:27;;;;;;;0.00;0.00;;;;;;;7.15;100.00;98792.06;6187633;23;20004;-73
2024/03/11 00:53:52;;;;;;;0.00;0.00;;;;;;;7.20;100.00;98788.50;6187590;23;20089;-72
2024/03/11 00:56:19;;;;;;;0.00;0.00;;;;;;;7.40;100.00;98788.34;6164655;23;20064;-73
2024/03/11 00:58:45;;;;;;;0.00;0.00;;;;;;;7.55;100.00;98792.03;6134673;23;20008;-72
2024/03/11 01:01:10;;;;;;;0.00;0.00;;;;;;;7.69;100.00;98801.13;6164338;23;20009;-72
2024/03/11 01:03:37;;;;;;;0.00;0.00;;;;;;;7.77;100.00;98803.25;6159292;23;20004;-71
2024/03/11 01:06:04;;;;;;;0.00;0.00;;;;;;;7.87;100.00;98813.22;6189497;23;20031;-72
2024/03/11 01:08:29;;;;;;;0.00;0.00;;;;;;;7.93;100.00;98805.81;6159894;23;20108;-72
2024/03/11 01:10:56;;;;;;;0.10;0.10;;;;;;;7.96;100.00;98816.13;6186694;23;20000;-72
2024/03/11 01:13:22;;;;;;;0.00;0.00;;;;;;;7.93;100.00;98811.25;6187368;23;20482;-72
2024/03/11 01:15:49;;;;;;;0.00;0.00;;;;;;;8.03;100.00;98827.47;6186060;23;20021;-72
2024/03/11 01:18:15;;;;;;;0.00;0.00;;;;;;;8.02;100.00;98823.16;6216545;23;20013;-71
2024/03/11 01:20:41;;;;;;;0.00;0.00;;;;;;;8.00;100.00;98819.88;6215255;23;20043;-72
2024/03/11 01:23:08;;;;;;;0.00;0.00;;;;;;;8.02;100.00;98828.59;6189123;23;20004;-73
2024/03/11 01:25:34;;;;;;;0.00;0.00;;;;;;;7.94;100.00;98819.13;6188837;23;20008;-72
2024/03/11 01:28:00;;;;;;;0.10;0.10;;;;;;;7.82;100.00;98808.63;6139056;23;20332;-72
2024/03/11 01:30:26;;;;;;;0.00;0.00;;;;;;;7.80;100.00;98815.47;6167300;23;20059;-71
2024/03/11 01:32:51;;;;;;;0.00;0.00;;;;;;;7.97;100.00;98839.50;6219383;23;20009;-71
2024/03/11 01:35:17;;;;;;;0.00;0.00;;;;;;;7.96;100.00;98837.91;6167742;23;20640;-73
2024/03/11 01:37:46;;;;;;;0.00;0.00;;;;;;;7.99;100.00;98845.50;6165406;23;19999;-71
2024/03/11 01:40:15;;;;;;;0.00;0.00;;;;;;;7.98;100.00;98846.59;6190019;23;20028;-73
2024/03/11 01:42:44;;;;;;;0.00;0.00;;;;;;;8.04;100.00;98856.31;6191860;23;20013;-72
2024/03/11 01:45:12;;;;;;;0.00;0.00;;;;;;;8.07;100.00;98857.66;6162306;23;20007;-73
2024/03/11 01:47:37;;;;;;;0.00;0.00;;;;;;;8.09;100.00;98859.00;6190873;23;20058;-72
2024/03/11 01:50:07;;;;;;;0.00;0.00;;;;;;;8.10;100.00;98857.88;6186451;23;20088;-73
2024/03/11 01:52:45;;;;;;;0.00;0.00;;;;;;;8.14;100.00;98866.31;6217342;23;20443;-73
2024/03/11 01:55:12;;;;;;;0.00;0.00;;;;;;;8.12;100.00;98868.50;6211790;23;20012;-72
2024/03/11 01:57:39;;;;;;;0.00;0.00;;;;;;;8.01;100.00;98851.47;6189882;23;20030;-73
2024/03/11 02:00:08;;;;;;;0.00;0.00;;;;;;;7.92;100.00;98831.41;6186589;23;20004;-73
2024/03/11 02:02:38;;;;;;;0.00;0.00;;;;;;;7.93;100.00;98843.91;6215893;23;20442;-73
2024/03/11 02:05:09;;;;;;;0.00;0.00;;;;;;;8.16;100.00;98878.53;6162735;23;20000;-73
2024/03/11 02:07:36;;;;;;;0.00;0.00;;;;;;;8.16;100.00;98881.25;6191521;23;20020;-74
2024/03/11 02:10:06;;;;;;;0.00;0.00;;;;;;;8.08;100.00;98867.47;6213658;23;20004;-73
2024/03/11 02:12:31;;;;;;;0.00;0.00;;;;;;;8.14;100.00;98878.00;6187500;23;20031;-73
2024/03/11 02:14:59;;;;;;;0.00;0.00;;;;;;;8.16;100.00;98881.25;6166545;23;20009;-74
2024/03/11 02:17:25;;;;;;;0.00;0.00;;;;;;;8.20;100.00;98882.28;6163654;23;20032;-73
2024/03/11 02:19:52;;;;;;;0.00;0.00;;;;;;;8.08;100.00;98872.91;6189277;23;20031;-73
2024/03/11 02:22:18;;;;;;;0.00;0.00;;;;;;;8.13;100.00;98887.28;6216140;23;20007;-72
2024/03/11 02:24:44;;;;;;;0.00;0.00;;;;;;;8.21;100.00;98892.09;6213463;23;20420;-74
2024/03/11 02:27:10;;;;;;;0.00;0.00;;;;;;;8.19;100.00;98891.59;6188187;23;20074;-73
2024/03/11 02:29:42;;;;;;;0.00;0.00;;;;;;;8.11;100.00;98883.22;6161612;23;20447;-74
2024/03/11 02:32:08;;;;;;;0.00;0.00;;;;;;;8.20;100.00;98898.63;6169679;23;20067;-74
2024/03/11 02:34:33;;;;;;;0.00;0.00;;;;;;;8.20;100.00;98908.72;6211874;23;20934;-72
2024/03/11 02:37:01;;;;;;;0.00;0.00;;;;;;;8.19;100.00;98913.38;6166031;23;20013;-74
2024/03/11 02:39:27;;;;;;;0.10;0.10;;;;;;;8.13;100.00;98903.63;6190520;23;20004;-74
2024/03/11 02:41:53;;;;;;;0.00;0.00;;;;;;;8.08;100.00;98895.50;6164460;23;20391;-73
2024/03/11 02:44:18;;;;;;;0.00;0.00;;;;;;;8.06;100.00;98897.69;6164681;23;20055;-73
2024/03/11 02:46:44;;;;;;;0.00;0.00;;;;;;;8.00;100.00;98894.22;6161770;23;20008;-73
2024/03/11 02:49:10;;;;;;;0.00;0.00;;;;;;;8.11;100.00;98913.97;6189236;23;20032;-74
2024/03/11 02:51:38;;;;;;;0.00;0.00;;;;;;;8.09;100.00;98913.47;6215970;23;20019;-74
2024/03/11 02:54:07;;;;;;;0.10;0.10;;;;;;;7.96;100.00;98892.34;6192270;23;20088;-74
2024/03/11 02:56:37;;;;;;;0.00;0.00;;;;;;;8.01;100.00;98901.25;6191037;23;20009;-72
2024/03/11 02:59:02;;;;;;;0.00;0.00;;;;;;;8.01;100.00;98903.19;6189856;23;20004;-73
2024/03/11 03:01:28;;;;;;;0.10;0.10;;;;;;;8.05;100.00;98909.69;6138829;23;20017;-73
2024/03/11 03:03:53;;;;;;;0.05;0.05;;;;;;;8.10;100.00;98920.50;6141874;23;20001;-73
2024/03/11 03:06:19;;;;;;;0.00;0.00;;;;;;;8.15;100.00;98919.69;6188315;23;20020;-73
2024/03/11 03:08:45;;;;;;;0.00;0.00;;;;;;;8.12;100.00;98925.66;6163061;23;20004;-73
2024/03/11 03:11:11;;;;;;;0.00;0.00;;;;;;;8.15;100.00;98920.47;6215787;23;20004;-74
2024/03/11 03:13:37;;;;;;;0.00;0.00;;;;;;;8.13;100.00;98919.13;6187800;23;20095;-73
2024/03/11 03:16:03;;;;;;;0.00;0.00;;;;;;;8.11;100.00;98916.69;6185986;23;20069;-72
2024/03/11 03:18:28;;;;;;;0.00;0.00;;;;;;;8.12;100.00;98918.34;6188650;23;20032;-72
2024/03/11 03:20:54;;;;;;;0.00;0.00;;;;;;;8.07;100.00;98910.19;6137317;23;20008;-72
2024/03/11 03:23:19;;;;;;;0.00;0.00;;;;;;;8.11;100.00;98916.69;6173930;23;20009;-72
2024/03/11 03:25:45;;;;;;;0.00;0.00;;;;;;;8.05;100.00;98906.97;6161399;23;20019;-75
2024/03/11 03:28:13;;;;;;;0.00;0.00;;;;;;;8.11;100.00;98922.16;6213739;23;20039;-72
2024/03/11 03:30:38;;;;;;;0.00;0.00;;;;;;;8.06;100.00;98908.59;6187927;23;20008;-73
2024/03/11 03:33:04;;;;;;;0.00;0.00;;;;;;;8.07;100.00;98915.66;6138812;23;20285;-72
2024/03/11 03:35:32;;;;;;;0.00;0.00;;;;;;;8.05;100.00;98917.84;6139643;23;20035;-73
2024/03/11 03:37:59;;;;;;;0.00;0.00;;;;;;;8.08;100.00;98922.72;6185904;23;20011;-72
2024/03/11 03:40:25;;;;;;;0.00;0.00;;;;;;;8.05;100.00;98928.75;6186705;23;20059;-74
2024/03/11 03:42:51;;;;;;;0.00;0.00;;;;;;;8.06;100.00;98927.66;6217236;23;20419;-73
2024/03/11 03:45:18;;;;;;;0.00;0.00;;;;;;;8.06;100.00;98930.38;6186771;23;20632;-74
2024/03/11 03:47:45;;;;;;;0.00;0.00;;;;;;;8.05;100.00;98939.63;6215868;23;20039;-74
2024/03/11 03:50:12;;;;;;;0.00;0.00;;;;;;;8.06;100.00;98935.81;6160641;23;20019;-74
2024/03/11 03:52:47;;;;;;;0.00;0.00;;;;;;;8.03;100.00;98933.63;6190631;23;19988;-72
2024/03/11 03:55:14;;;;;;;0.00;0.00;;;;;;;7.98;100.00;98934.50;6162988;23;19993;-73
2024/03/11 03:57:40;;;;;;;0.00;0.00;;;;;;;7.99;100.00;98940.78;6216057;23;20289;-72
2024/03/11 04:00:16;;;;;;;0.00;0.00;;;;;;;7.97;100.00;98948.41;6165907;23;20008;-74
2024/03/11 04:02:44;;;;;;;0.00;0.00;;;;;;;8.02;100.00;98962.78;6189592;23;20012;-74
2024/03/11 04:05:14;;;;;;;0.00;0.00;;;;;;;8.00;100.00;98958.72;6214887;23;20067;-73
2024/03/11 04:07:45;;;;;;;0.10;0.10;;;;;;;7.78;100.00;98940.94;6164122;23;20076;-73
2024/03/11 04:10:17;;;;;;;0.00;0.00;;;;;;;7.99;100.00;98968.81;6190203;23;20016;-74
2024/03/11 04:12:49;;;;;;;0.10;0.10;;;;;;;8.00;100.00;98969.59;6162102;23;20005;-73
2024/03/11 04:15:29;;;;;;;0.00;0.00;;;;;;;7.76;100.00;98945.84;6190609;23;20092;-73
2024/03/11 04:17:55;;;;;;;0.00;0.00;;;;;;;7.96;100.00;98984.91;6214370;22;20003;-75
2024/03/11 04:20:26;;;;;;;0.10;0.10;;;;;;;7.83;100.00;98968.09;6220209;23;20003;-72
2024/03/11 04:22:53;;;;;;;0.00;0.00;;;;;;;7.80;100.00;98971.41;6217043;23;20166;-73
2024/03/11 04:25:25;;;;;;;0.00;0.00;;;;;;;7.91;100.00;98993.09;6218692;22;20339;-72
2024/03/11 04:27:54;;;;;;;0.00;0.00;;;;;;;7.72;100.00;98955.66;6218411;23;20004;-74
2024/03/11 04:30:21;;;;;;;0.00;0.00;;;;;;;7.95;100.00;98996.88;6220161;22;20051;-74
2024/03/11 04:32:51;;;;;;;0.00;0.00;;;;;;;7.85;100.00;98987.66;6194145;22;20012;-73
2024/03/11 04:35:18;;;;;;;0.00;0.00;;;;;;;7.95;100.00;98996.88;6220119;22;20012;-74
2024/03/11 04:37:44;;;;;;;0.00;0.00;;;;;;;7.83;100.00;98976.28;6248670;22;20519;-73
2024/03/11 04:40:10;;;;;;;0.00;0.00;;;;;;;7.82;100.00;98982.78;6225532;23;20000;-73
2024/03/11 04:42:35;;;;;;;0.00;0.00;;;;;;;7.83;100.00;98981.72;6221360;22;19988;-75
2024/03/11 04:45:14;;;;;;;;;;;;;;;;;;;;;
2024/03/11 04:47:53;;;;;;;;;;;;;;;;;;;;;
2024/03/11 04:50:30;;;;;;;0.00;0.00;;;;;;;7.92;100.00;99005.63;6244742;22;20091;-74
2024/03/11 04:53:01;;;;;;;0.00;0.00;;;;;;;7.81;100.00;99005.69;6220070;23;20000;-74
2024/03/11 04:55:27;;;;;;;0.00;0.00;;;;;;;7.88;100.00;99010.78;6217300;22;21091;-73
2024/03/11 04:58:00;;;;;;;0.00;0.00;;;;;;;7.90;100.00;99021.41;6219896;22;20000;-73
2024/03/11 05:01:00;;;;;;;;;;;;;;;;;;;;;
2024/03/11 05:03:26;;;;;;;0.00;0.00;;;;;;;7.86;100.00;99030.13;6245380;22;20403;-73
2024/03/11 05:05:52;;;;;;;0.00;0.00;;;;;;;7.89;100.00;99036.13;6218951;22;20019;-73
2024/03/11 05:08:19;;;;;;;0.00;0.00;;;;;;;7.68;100.00;99001.69;6245066;22;20031;-74
2024/03/11 05:10:50;;;;;;;0.00;0.00;;;;;;;7.75;100.00;99006.78;6244541;22;20411;-74
2024/03/11 05:13:16;;;;;;;0.00;0.00;;;;;;;7.85;100.00;99031.22;6193091;23;20004;-73
2024/03/11 05:15:47;;;;;;;0.00;0.00;;;;;;;7.76;100.00;99013.06;6193322;22;20601;-74
2024/03/11 05:18:15;;;;;;;0.00;0.00;;;;;;;7.73;100.00;99025.31;6244790;22;20080;-72
2024/03/11 05:20:40;;;;;;;0.00;0.00;;;;;;;7.82;100.00;99039.94;6218632;22;20004;-74
2024/03/11 05:23:06;;;;;;;0.00;0.00;;;;;;;7.81;100.00;99046.50;6218171;22;20019;-74
2024/03/11 05:25:34;;;;;;;0.00;0.00;;;;;;;7.91;100.00;99066.59;6169430;23;20015;-72
2024/03/11 05:28:00;;;;;;;0.00;0.00;;;;;;;7.73;100.00;99044.38;6244190;22;20014;-73
2024/03/11 05:30:27;;;;;;;0.00;0.00;;;;;;;7.90;100.00;99068.50;6218350;22;20395;-72
2024/03/11 05:32:53;;;;;;;0.00;0.00;;;;;;;7.91;100.00;99077.47;6192853;22;20424;-73
2024/03/11 05:35:19;;;;;;;0.00;0.00;;;;;;;7.86;100.00;99068.25;6194087;22;20061;-72
2024/03/11 05:37:44;;;;;;;0.00;0.00;;;;;;;7.89;100.00;99085.13;6219672;22;20008;-72
2024/03/11 05:40:13;;;;;;;0.00;0.00;;;;;;;7.82;100.00;99083.50;6193515;23;20090;-73
2024/03/11 05:42:42;;;;;;;0.00;0.00;;;;;;;7.83;100.00;99098.75;6218623;22;19988;-73
2024/03/11 05:45:10;;;;;;;0.00;0.00;;;;;;;7.80;100.00;99099.31;6194306;23;20379;-73
2024/03/11 05:47:36;;;;;;;0.00;0.00;;;;;;;7.75;100.00;99104.75;6193503;22;20111;-73
2024/03/11 05:50:03;;;;;;;0.10;0.10;;;;;;;7.74;100.00;99103.16;6218755;22;20011;-72
2024/03/11 05:52:29;;;;;;;0.00;0.00;;;;;;;7.68;100.00;99107.81;6244380;22;20102;-73
2024/03/11 05:54:56;;;;;;;0.00;0.00;;;;;;;7.68;100.00;99105.09;6246601;22;20384;-74
2024/03/11 05:57:30;;;;;;;0.00;0.00;;;;;;;7.75;100.00;99121.09;6196690;23;20008;-74
2024/03/11 06:00:00;;;;;;;0.00;0.00;;;;;;;7.65;100.00;99115.69;6222709;23;20008;-74
2024/03/11 06:02:25;;;;;;;0.00;0.00;;;;;;;7.69;100.00;99130.38;6222931;23;20008;-74
2024/03/11 06:04:53;;;;;;;0.00;0.00;;;;;;;7.62;100.00;99127.97;6221710;23;20031;-74
2024/03/11 06:07:22;;;;;;;0.00;0.00;;;;;;;7.59;100.00;99138.56;6196632;23;20040;-74
2024/03/11 06:09:48;;;;;;;0.00;0.00;;;;;;;7.44;100.00;99121.22;6247734;23;20011;-73
2024/03/11 06:12:14;;;;;;;0.00;0.00;;;;;;;7.40;100.00;99119.31;6247153;23;20012;-73
2024/03/11 06:14:39;;;;;;;0.00;0.00;;;;;;;7.35;100.00;99117.44;6169187;23;20019;-73
2024/03/11 06:17:07;;;;;;;0.00;0.00;;;;;;;7.42;100.00;99126.13;6223392;23;20058;-74
2024/03/11 06:19:47;;;;;;;;;;;;;;;;;;;;;
2024/03/11 06:22:15;;;;;;;0.00;0.00;;;;;;;7.58;100.00;99158.69;6247744;22;20087;-74
2024/03/11 06:24:41;;;;;;;0.00;0.00;;;;;;;7.58;100.00;99161.41;6217907;22;20031;-73
2024/03/11 06:27:11;;;;;;;0.00;0.00;;;;;;;7.58;100.00;99158.69;6245547;22;20011;-74
2024/03/11 06:29:36;;;;;;;0.00;0.00;;;;;;;7.55;100.00;99160.09;6218798;22;20003;-72
2024/03/11 06:32:05;;;;;;;0.00;0.00;;;;;;;7.54;100.00;99163.09;6244074;22;20004;-75
2024/03/11 06:34:31;;;;;;;0.00;0.00;;;;;;;7.58;100.00;99172.31;6169696;22;20076;-73
2024/03/11 06:36:56;;;;;;;0.00;0.00;;;;;;;7.56;100.00;99171.78;6243545;22;20008;-74
2024/03/11 06:39:22;;;;;;;0.00;0.00;;;;;;;7.61;100.00;99177.22;6220525;23;20068;-73
2024/03/11 06:41:50;;;;;;;0.00;0.00;;;;;;;7.56;100.00;99171.78;6193357;23;20012;-73
2024/03/11 06:44:21;;;;;;;0.00;0.00;;;;;;;7.38;100.00;99149.53;6220919;23;20016;-72
2024/03/11 06:46:47;;;;;;;0.00;0.00;;;;;;;7.47;100.00;99175.06;6220015;23;20011;-73
2024/03/11 06:49:13;;;;;;;0.00;0.00;;;;;;;7.53;100.00;99188.66;6216891;22;20000;-74
2024/03/11 06:51:39;;;;;;;0.00;0.00;;;;;;;7.55;100.00;99197.34;6191933;23;20095;-73
2024/03/11 06:54:05;;;;;;;0.00;0.00;;;;;;;7.57;100.00;99201.44;6167069;22;20058;-73
2024/03/11 06:56:30;;;;;;;0.05;0.05;;;;;;;7.57;100.00;99206.06;6170331;22;20004;-71
2024/03/11 06:58:58;;;;;;;0.10;0.10;;;;;;;7.60;100.00;99213.66;6191271;23;20034;-73
2024/03/11 07:11:32;;;;;;;0.00;0.00;;;;;;;7.51;100.00;99197.91;6159272;23;20062;-78
2024/03/11 07:13:58;;;;;;;0.00;0.00;;;;;;;7.72;100.00;99235.13;6162570;23;20428;-77
2024/03/11 07:16:27;;;;;;;0.00;0.00;;;;;;;7.64;100.00;99223.72;6233313;23;20062;-78
2024/03/11 07:19:12;;;;;;;0.00;0.00;;;;;;;7.49;100.00;99205.53;6249222;22;20016;-77
2024/03/11 07:30:01;;;;;;;;;;;;;;;;;;;;;
2024/03/11 07:33:20;;;;;;;0.00;0.00;;;;;;;7.90;100.00;99253.59;6109967;23;20044;-77
2024/03/11 07:36:07;;;;;;;0.00;0.00;;;;;;;7.65;100.00;99206.31;6229745;23;20008;-76
2024/03/11 07:38:33;;;;;;;0.10;0.10;;;;;;;7.75;100.00;99218.25;6251751;22;20054;-78
2024/03/11 07:41:01;;;;;;;0.00;0.00;;;;;;;7.78;100.00;99229.41;6251250;23;20008;-77
2024/03/11 07:43:33;;;;;;;0.00;0.00;;;;;;;7.82;100.00;99224.22;6222688;23;20000;-77
2024/03/11 07:46:03;;;;;;;0.03;0.03;;;;;;;7.81;100.00;99223.41;6251805;23;20012;-76
2024/03/11 07:48:40;;;;;;;0.00;0.00;;;;;;;8.13;100.00;99267.66;6250723;23;20006;-79
2024/03/11 07:51:12;;;;;;;0.00;0.00;;;;;;;8.13;100.00;99268.50;6253554;23;20021;-79
2024/03/11 07:53:48;;;;;;;0.00;0.00;;;;;;;8.16;100.00;99261.66;6223151;23;20008;-79
2024/03/11 07:56:15;;;;;;;0.00;0.00;;;;;;;8.02;100.00;99248.66;6226177;23;19993;-79
2024/03/11 07:58:46;;;;;;;0.00;0.00;;;;;;;8.15;100.00;99260.06;6249978;23;20004;-78
2024/03/11 08:01:16;;;;;;;0.00;0.00;;;;;;;8.39;100.00;99292.88;6200496;23;20020;-78
2024/03/11 08:04:28;;;;;;;0.00;0.00;;;;;;;8.15;100.00;99260.06;6223786;23;20366;-77
2024/03/11 08:06:54;;;;;;;0.00;0.00;;;;;;;8.23;100.00;99283.16;6224918;23;20039;-76
2024/03/11 08:09:19;;;;;;;0.00;0.00;;;;;;;8.24;100.00;99292.97;6220445;23;20004;-77
2024/03/11 08:11:45;;;;;;;0.00;0.00;;;;;;;8.25;100.00;99298.13;6195553;23;20431;-78
2024/03/11 08:14:20;;;;;;;0.00;0.00;;;;;;;8.19;100.00;99278.28;6246891;23;20020;-77
2024/03/11 08:16:46;;;;;;;0.00;0.00;;;;;;;8.32;100.00;99292.38;6191814;22;19992;-76
2024/03/11 08:19:13;;;;;;;0.00;0.00;;;;;;;8.33;100.00;99289.38;6204455;22;20023;-77
2024/03/11 08:21:40;;;;;;;0.00;0.00;;;;;;;8.59;100.00;99318.47;6143650;23;20020;-76
2024/03/11 08:24:06;;;;;;;0.00;0.00;;;;;;;8.55;99.72;99308.09;6192519;23;20068;-76
2024/03/11 08:26:35;;;;;;;0.00;0.00;;;;;;;8.64;99.32;99310.25;6165701;23;20036;-75
2024/03/11 08:29:00;;;;;;;0.00;0.00;;;;;;;8.64;99.30;99315.69;6167369;23;20027;-76
2024/03/11 08:31:28;;;;;;;0.00;0.00;;;;;;;8.70;98.86;99328.19;6140744;23;20412;-77
2024/03/11 08:33:54;;;;;;;0.00;0.00;;;;;;;8.58;98.64;99312.19;6190753;23;20013;-77
2024/03/11 08:36:19;;;;;;;0.00;0.00;;;;;;;8.69;97.69;99323.88;6165245;23;20506;-77
2024/03/11 08:38:45;;;;;;;0.00;0.00;;;;;;;8.75;98.27;99322.72;6189674;23;20008;-77
2024/03/11 08:41:11;;;;;;;0.00;0.00;;;;;;;8.86;97.66;99335.22;6167903;23;20015;-77
2024/03/11 08:43:39;;;;;;;0.00;0.00;;;;;;;8.97;97.27;99325.06;6142666;23;20009;-77
2024/03/11 08:46:05;;;;;;;0.00;0.00;;;;;;;9.27;96.48;99345.03;6170271;23;20119;-77
2024/03/11 08:48:30;;;;;;;0.00;0.00;;;;;;;9.40;95.83;99344.41;6165032;23;20163;-77
2024/03/11 08:51:04;;;;;;;0.00;0.00;;;;;;;9.51;94.91;99350.59;6142257;23;20005;-79
2024/03/11 08:53:29;;;;;;;0.00;0.00;;;;;;;9.61;94.13;99347.78;6166477;23;20055;-77
2024/03/11 08:55:58;;;;;;;0.00;0.00;;;;;;;9.59;93.73;99341.81;6192350;23;20000;-78
2024/03/11 08:58:26;;;;;;;0.00;0.00;;;;;;;9.72;93.52;99353.16;6190384;23;20005;-77
2024/03/11 09:00:53;;;;;;;0.00;0.00;;;;;;;9.84;92.94;99364.53;6141498;23;20004;-76
2024/03/11 09:03:21;;;;;;;0.00;0.00;;;;;;;9.90;91.49;99368.81;6216088;23;20027;-77
2024/03/11 09:06:10;;;;;;;0.00;0.00;;;;;;;9.72;91.41;99351.22;6219040;23;20009;-77
2024/03/11 09:08:38;;;;;;;0.00;0.00;;;;;;;9.82;90.82;99365.91;6193330;23;20087;-76
2024/03/11 09:11:06;;;;;;;0.00;0.00;;;;;;;9.90;91.33;99374.28;6187346;23;20009;-77
2024/03/11 09:13:33;;;;;;;0.00;0.00;;;;;;;9.90;90.95;99373.47;6190359;23;20075;-78
2024/03/11 09:15:59;;;;;;;0.00;0.00;;;;;;;9.91;90.49;99375.09;6166991;23;20012;-79
2024/03/11 09:18:26;;;;;;;0.00;0.00;;;;;;;9.89;90.03;99375.38;6218294;22;20104;-79
2024/03/11 09:20:55;;;;;;;0.00;0.00;;;;;;;9.79;89.53;99367.28;6189370;23;20035;-75
2024/03/11 09:23:21;;;;;;;0.00;0.00;;;;;;;9.70;89.05;99371.75;6191678;23;20016;-75
2024/03/11 09:25:47;;;;;;;0.00;0.00;;;;;;;9.68;89.50;99393.03;6189834;23;20665;-76
2024/03/11 09:28:24;;;;;;;0.00;0.00;;;;;;;9.69;89.32;99389.22;6189658;23;20031;-74
2024/03/11 09:30:53;;;;;;;0.00;0.00;;;;;;;9.58;88.93;99386.56;6161946;23;20036;-78
2024/03/11 09:33:23;;;;;;;0.00;0.00;;;;;;;9.73;89.16;99406.66;6142721;23;20023;-76
2024/03/11 09:35:49;;;;;;;0.00;0.00;;;;;;;9.60;88.77;99406.19;6166772;23;20023;-77
2024/03/11 09:38:26;;;;;;;0.00;0.00;;;;;;;9.49;87.94;99415.56;6194765;23;20328;-78
2024/03/11 09:41:03;;;;;;;0.00;0.00;;;;;;;9.34;88.86;99410.19;6194446;23;20059;-76
2024/03/11 09:43:57;;;;;;;;;;;;;;;;;;;;;
2024/03/11 09:49:35;;;;;;;0.00;0.00;;;;;;;8.93;88.67;99399.53;6176381;23;20006;-79
2024/03/11 09:52:02;;;;;;;0.00;0.00;;;;;;;9.04;89.00;99431.09;6169043;23;20099;-78
2024/03/11 09:54:36;;;;;;;0.00;0.00;;;;;;;9.16;88.80;99442.50;6170762;23;20155;-78
2024/03/11 09:57:28;;;;;;;;;;;;;;;;;;;;;
2024/03/11 09:59:57;;;;;;;0.00;0.00;;;;;;;9.06;88.90;99428.91;6220972;23;20036;-77
2024/03/11 10:02:26;;;;;;;0.00;0.00;;;;;;;9.14;88.86;99461.06;6194351;23;20415;-78
2024/03/11 10:04:58;;;;;;;0.00;0.00;;;;;;;8.93;89.35;99434.97;6194601;23;20012;-77
2024/03/11 10:07:23;;;;;;;0.00;0.00;;;;;;;9.08;89.24;99456.69;6170652;23;20008;-77
2024/03/11 10:09:51;;;;;;;0.00;0.00;;;;;;;9.01;89.38;99440.66;6195037;23;20000;-77
2024/03/11 10:12:19;;;;;;;0.00;0.00;;;;;;;9.25;89.89;99473.53;6193891;23;20015;-77
2024/03/11 10:14:50;;;;;;;0.00;0.00;;;;;;;9.24;89.79;99457.44;6194023;23;20027;-78
2024/03/11 10:17:20;;;;;;;0.00;0.00;;;;;;;9.35;89.58;99477.31;6194943;23;20099;-76
2024/03/11 10:20:14;;;;;;;0.00;0.00;;;;;;;9.22;89.49;99474.09;6215334;23;20020;-77
2024/03/11 10:22:47;;;;;;;0.00;0.00;;;;;;;9.15;89.29;99473.59;6215651;22;20056;-78
2024/03/11 10:25:31;;;;;;;0.00;0.00;;;;;;;8.99;89.34;99442.03;6251815;22;21110;-78
2024/03/11 10:28:56;;;;;;;0.00;0.00;;;;;;;9.31;89.52;99487.16;6224970;22;20402;-78
2024/03/11 10:31:35;;;;;;;0.00;0.00;;;;;;;8.96;89.21;99464.41;6231525;22;20012;-79
2024/03/11 10:34:11;;;;;;;0.00;0.00;;;;;;;9.04;88.67;99472.00;6225366;23;20012;-78
2024/03/11 10:36:48;;;;;;;0.00;0.00;;;;;;;9.25;88.94;99503.53;6256745;22;20095;-79
2024/03/11 10:39:30;;;;;;;0.00;0.00;;;;;;;8.99;88.84;99452.94;6252789;23;20004;-78
2024/03/11 10:42:01;;;;;;;0.00;0.00;;;;;;;9.24;89.04;99482.84;6228397;23;20023;-78
2024/03/11 10:44:29;;;;;;;0.00;0.00;;;;;;;9.21;89.03;99488.00;6249819;23;20006;-77
2024/03/11 10:47:02;;;;;;;0.00;0.00;;;;;;;9.37;88.64;99514.13;6224374;22;20060;-78
2024/03/11 10:49:49;;;;;;;;;;;;;;;;;;;;;
2024/03/11 10:52:25;;;;;;;0.00;0.00;;;;;;;9.25;88.25;99487.16;6253391;23;20028;-79
2024/03/11 10:55:32;;;;;;;0.00;0.00;;;;;;;9.30;88.39;99488.25;6251193;22;20019;-78
2024/03/11 10:58:02;;;;;;;0.00;0.00;;;;;;;9.52;87.55;99488.69;6223440;22;19996;-77
2024/03/11 11:00:44;;;;;;;;;;;;;;;;;;;;;
2024/03/11 11:03:23;;;;;;;;;;;;;;;;;;;;;
2024/03/11 11:06:09;;;;;;;0.00;0.00;;;;;;;9.88;85.60;99518.47;6204782;22;20055;-79
2024/03/11 11:08:46;;;;;;;;;;;;;;;;;;;;;
2024/03/11 11:11:17;;;;;;;0.00;0.00;;;;;;;9.77;85.81;99512.28;6251372;22;20031;-78
2024/03/11 11:13:46;;;;;;;0.00;0.00;;;;;;;9.71;84.94;99502.50;6246292;23;20000;-79
2024/03/11 11:16:13;;;;;;;0.00;0.00;;;;;;;9.71;84.88;99531.69;6200324;22;20015;-78
2024/03/11 11:18:41;;;;;;;0.00;0.00;;;;;;;9.50;84.69;99525.53;6246459;22;20024;-78
2024/03/11 11:21:10;;;;;;;0.00;0.00;;;;;;;9.39;85.27;99511.13;6200250;22;20015;-79
2024/03/11 11:23:41;;;;;;;0.00;0.00;;;;;;;9.55;85.38;99530.97;6172042;23;20004;-77
2024/03/11 11:26:12;;;;;;;0.00;0.00;;;;;;;9.51;85.73;99530.72;6224817;22;20090;-78
2024/03/11 11:28:37;;;;;;;0.00;0.00;;;;;;;9.55;85.79;99537.25;6220189;22;20008;-78
2024/03/11 11:31:32;;;;;;;0.00;0.00;;;;;;;9.35;86.30;99515.53;6251425;23;20142;-77
2024/03/11 11:34:04;;;;;;;0.00;0.00;;;;;;;9.48;86.09;99536.75;6197884;22;20028;-77
2024/03/11 11:36:33;;;;;;;0.00;0.00;;;;;;;9.53;86.37;99536.69;6224241;22;20075;-78
2024/03/11 11:39:14;;;;;;;0.00;0.00;;;;;;;9.55;86.43;99542.72;6244313;22;20010;-77
2024/03/11 11:41:47;;;;;;;0.00;0.00;;;;;;;9.46;86.41;99528.00;6248257;22;20000;-77
2024/03/11 11:44:27;;;;;;;0.00;0.00;;;;;;;9.68;85.98;99551.38;6196940;22;20007;-77
2024/03/11 11:47:25;;;;;;;0.00;0.00;;;;;;;9.58;86.14;99530.41;6225130;23;20011;-78
2024/03/11 11:49:49;;;;;;;0.00;0.00;;;;;;;9.60;86.13;99523.56;6248339;22;20004;-77
2024/03/11 11:52:18;;;;;;;0.00;0.00;;;;;;;9.85;86.24;99551.81;6223283;22;20018;-78
2024/03/11 11:55:04;;;;;;;0.00;0.00;;;;;;;9.96;86.06;99542.47;6217410;22;20018;-78
2024/03/11 11:57:29;;;;;;;0.00;0.00;;;;;;;10.22;84.29;99557.84;6224381;23;20040;-79
2024/03/11 12:00:00;;;;;;;0.00;0.00;;;;;;;10.13;83.01;99541.25;6218747;23;20008;-78
2024/03/11 12:02:39;;;;;;;0.00;0.00;;;;;;;10.40;83.50;99551.72;6224636;23;20027;-77
2024/03/11 12:05:05;;;;;;;0.00;0.00;;;;;;;10.64;82.86;99560.00;6175735;23;20018;-77
2024/03/11 12:07:42;;;;;;;0.00;0.00;;;;;;;10.79;82.38;99558.19;6224521;23;20004;-78
2024/03/11 12:10:10;;;;;;;0.00;0.00;;;;;;;11.03;81.92;99569.19;6247046;22;20028;-78
2024/03/11 12:12:54;;;;;;;0.00;0.00;;;;;;;10.86;80.36;99557.88;6198703;23;20012;-77
2024/03/11 12:15:29;;;;;;;;;;;;;;;10.72;79.82;99574.13;6223153;23;20015;-77
2024/03/11 12:18:02;;;;;;;0.00;0.00;;;;;;;10.42;80.57;99565.91;6222598;23;19935;-77
2024/03/11 12:20:31;;;;;;;0.00;0.00;;;;;;;10.40;80.39;99572.78;6196480;22;20008;-77
2024/03/11 12:23:00;;;;;;;0.00;0.00;;;;;;;10.38;81.35;99564.88;6197811;23;20107;-77
2024/03/11 12:25:32;;;;;;;0.00;0.00;;;;;;;10.43;80.98;99583.94;6195705;23;20008;-78